PWSweather.com
Personal Weather Stations
Station Observations
EDELWEISS
Edelweiss Mazama, Winthrop, WA 98862

Edelweiss MazamaWinthrop, WA 98862

Lat: 48.55444, Lon: -120.33194

Elevation: 2376

Station Type: Davis Vantage Vue

http://www.methow.us/weather/etown.html

Latest ConditionsUpdated 2:20:01 PM PST Tuesday, Feb 9, 2016
Currently Today's Max Today's Min Today's Average
Temperature 39.8°F4.3°C 40.0°F4.4°C 24.5°F-4.2°C 29.4°F-1.4°C
Dew Point 32.5°F0.3°C 33.0°F0.6°C 23.4°F-4.8°C 27.0°F-2.8°C
Winds Calm Calm Calm Calm - Calm Calm
Wind Gusts -- -- - -
Humidity 75% 97% 75% 91%
Pressure 30.44 in1030.8 mb 30.70 in1039.6 mb 30.44 in1030.8 mb -
Precipitation - 0.12 in3.0 mm - -
Hour Temp Dew Point Humidity Winds Wind Gusts Pressure Precip Precip Rate Daily Precip Total
02:20 PM 39.8°F4.3°C 32.5°F0.3°C 75% Calm Calm -- 30.44 in1030.8 mb 0.09 in2.3 mm 0.06 in1.5 mm 0.12 in3.0 mm
02:10 PM 40.0°F4.4°C 33.0°F0.6°C 76% Calm Calm -- 30.44 in1030.8 mb 0.08 in2.0 mm 0.06 in1.5 mm 0.10 in2.5 mm
02:00 PM 39.9°F4.4°C 32.6°F0.3°C 75% Calm Calm -- 30.45 in1031.2 mb 0.07 in1.8 mm 0.02 in0.5 mm 0.08 in2.0 mm
01:50 PM 39.5°F4.2°C 32.6°F0.3°C 76% Calm Calm -- 30.45 in1031.2 mb 0.05 in1.3 mm 0.06 in1.5 mm 0.06 in1.5 mm
01:40 PM 39.5°F4.2°C 32.6°F0.3°C 76% Calm Calm -- 30.46 in1031.5 mb 0.04 in1.0 mm 0.06 in1.5 mm 0.05 in1.3 mm
01:30 PM 39.2°F4.0°C 32.3°F0.2°C 76% Calm Calm -- 30.46 in1031.5 mb 0.03 in0.8 mm 0.00 in0.0 mm 0.04 in1.0 mm
01:20 PM 39.1°F3.9°C 32.2°F0.1°C 76% Calm Calm -- 30.47 in1031.8 mb 0.03 in0.8 mm 0.06 in1.5 mm 0.03 in0.8 mm
01:10 PM 38.8°F3.8°C 32.5°F0.3°C 78% Calm Calm -- 30.47 in1031.8 mb 0.02 in0.5 mm 0.06 in1.5 mm 0.02 in0.5 mm
01:00 PM 38.5°F3.6°C 31.9°F-0.1°C 77% Calm Calm -- 30.48 in1032.2 mb 0.01 in0.3 mm 0.00 in0.0 mm 0.01 in0.3 mm
12:50 PM 38.3°F3.5°C 32.0°F0.0°C 78% Calm Calm -- 30.49 in1032.5 mb 0.01 in0.3 mm 0.00 in0.0 mm 0.01 in0.3 mm
12:40 PM 38.2°F3.4°C 31.9°F-0.1°C 78% Calm Calm -- 30.49 in1032.5 mb 0.01 in0.3 mm 0.06 in1.5 mm 0.01 in0.3 mm
12:30 PM 37.8°F3.2°C 31.9°F-0.1°C 79% Calm Calm -- 30.50 in1032.8 mb 0.00 in0.0 mm 0.00 in0.0 mm 0.00 in0.0 mm
12:20 PM 36.6°F2.6°C 31.3°F-0.4°C 81% Calm Calm -- 30.51 in1033.2 mb 0.00 in0.0 mm 0.00 in0.0 mm 0.00 in0.0 mm
12:10 PM 36.0°F2.2°C 31.0°F-0.6°C 82% Calm Calm -- 30.52 in1033.5 mb 0.00 in0.0 mm 0.00 in0.0 mm 0.00 in0.0 mm
12:00 PM 35.5°F1.9°C 30.5°F-0.8°C 82% Calm Calm -- 30.52 in1033.5 mb 0.00 in0.0 mm 0.00 in0.0 mm 0.00 in0.0 mm
11:50 AM 35.1°F1.7°C 30.5°F-0.8°C 83% Calm Calm -- 30.53 in1033.9 mb 0.00 in0.0 mm 0.00 in0.0 mm 0.00 in0.0 mm
11:40 AM 34.9°F1.6°C 30.3°F-0.9°C 83% Calm Calm -- 30.54 in1034.2 mb 0.00 in0.0 mm 0.00 in0.0 mm 0.00 in0.0 mm
11:30 AM 34.5°F1.4°C 30.2°F-1.0°C 84% Calm Calm -- 30.55 in1034.5 mb 0.00 in0.0 mm 0.00 in0.0 mm 0.00 in0.0 mm
11:20 AM 34.3°F1.3°C 30.0°F-1.1°C 84% Calm Calm -- 30.56 in1034.9 mb 0.00 in0.0 mm 0.00 in0.0 mm 0.00 in0.0 mm
11:10 AM 33.7°F0.9°C 29.4°F-1.4°C 84% Calm Calm -- 30.57 in1035.2 mb 0.00 in0.0 mm 0.00 in0.0 mm 0.00 in0.0 mm
11:00 AM 34.1°F1.2°C 29.8°F-1.2°C 84% Calm Calm -- 30.57 in1035.2 mb 0.00 in0.0 mm 0.00 in0.0 mm 0.00 in0.0 mm
10:50 AM 33.7°F0.9°C 30.0°F-1.1°C 86% Calm Calm -- 30.57 in1035.2 mb 0.00 in0.0 mm 0.00 in0.0 mm 0.00 in0.0 mm
10:40 AM 32.8°F0.4°C 29.4°F-1.4°C 87% Calm Calm -- 30.58 in1035.6 mb 0.00 in0.0 mm 0.00 in0.0 mm 0.00 in0.0 mm
10:30 AM 31.5°F-0.3°C 28.9°F-1.7°C 90% Calm Calm -- 30.59 in1035.9 mb 0.00 in0.0 mm 0.00 in0.0 mm 0.00 in0.0 mm
10:20 AM 30.3°F-0.9°C 28.5°F-1.9°C 93% Calm Calm -- 30.59 in1035.9 mb 0.00 in0.0 mm 0.00 in0.0 mm 0.00 in0.0 mm
10:10 AM 29.3°F-1.5°C 27.8°F-2.3°C 94% Calm Calm -- 30.59 in1035.9 mb 0.00 in0.0 mm 0.00 in0.0 mm 0.00 in0.0 mm
10:00 AM 28.8°F-1.8°C 27.3°F-2.6°C 94% Calm Calm -- 30.60 in1036.2 mb 0.00 in0.0 mm 0.00 in0.0 mm 0.00 in0.0 mm
09:50 AM 28.3°F-2.1°C 27.3°F-2.6°C 96% Calm Calm -- 30.60 in1036.2 mb 0.00 in0.0 mm 0.00 in0.0 mm 0.00 in0.0 mm
09:40 AM 27.9°F-2.3°C 26.9°F-2.8°C 96% Calm Calm -- 30.60 in1036.2 mb 0.00 in0.0 mm 0.00 in0.0 mm 0.00 in0.0 mm
09:30 AM 27.1°F-2.7°C 26.1°F-3.3°C 96% Calm Calm -- 30.61 in1036.6 mb 0.00 in0.0 mm 0.00 in0.0 mm 0.00 in0.0 mm
09:20 AM 26.9°F-2.8°C 25.9°F-3.4°C 96% Calm Calm -- 30.61 in1036.6 mb 0.00 in0.0 mm 0.00 in0.0 mm 0.00 in0.0 mm
09:10 AM 26.2°F-3.2°C 25.2°F-3.8°C 96% Calm Calm -- 30.61 in1036.6 mb 0.00 in0.0 mm 0.00 in0.0 mm 0.00 in0.0 mm
09:00 AM 25.9°F-3.4°C 24.9°F-3.9°C 96% Calm Calm -- 30.61 in1036.6 mb 0.00 in0.0 mm 0.00 in0.0 mm 0.00 in0.0 mm
08:50 AM 25.7°F-3.5°C 24.7°F-4.1°C 96% Calm Calm -- 30.61 in1036.6 mb 0.00 in0.0 mm 0.00 in0.0 mm 0.00 in0.0 mm
08:40 AM 25.1°F-3.8°C 24.1°F-4.4°C 96% Calm Calm -- 30.62 in1036.9 mb 0.00 in0.0 mm 0.00 in0.0 mm 0.00 in0.0 mm
08:30 AM 25.0°F-3.9°C 24.0°F-4.4°C 96% Calm Calm -- 30.62 in1036.9 mb 0.00 in0.0 mm 0.00 in0.0 mm 0.00 in0.0 mm
08:20 AM 25.1°F-3.8°C 24.1°F-4.4°C 96% Calm Calm -- 30.62 in1036.9 mb 0.00 in0.0 mm 0.00 in0.0 mm 0.00 in0.0 mm
08:10 AM 25.0°F-3.9°C 23.8°F-4.6°C 95% Calm Calm -- 30.62 in1036.9 mb 0.00 in0.0 mm 0.00 in0.0 mm 0.00 in0.0 mm
08:00 AM 25.3°F-3.7°C 24.1°F-4.4°C 95% Calm Calm -- 30.62 in1036.9 mb 0.00 in0.0 mm 0.00 in0.0 mm 0.00 in0.0 mm
07:50 AM 25.6°F-3.6°C 24.4°F-4.2°C 95% Calm Calm -- 30.62 in1036.9 mb 0.00 in0.0 mm 0.00 in0.0 mm 0.00 in0.0 mm
07:40 AM 25.9°F-3.4°C 24.7°F-4.1°C 95% Calm Calm -- 30.62 in1036.9 mb 0.00 in0.0 mm 0.00 in0.0 mm 0.00 in0.0 mm
07:30 AM 25.9°F-3.4°C 24.7°F-4.1°C 95% Calm Calm -- 30.62 in1036.9 mb 0.00 in0.0 mm 0.00 in0.0 mm 0.00 in0.0 mm
07:20 AM 25.9°F-3.4°C 24.7°F-4.1°C 95% Calm Calm -- 30.62 in1036.9 mb 0.00 in0.0 mm 0.00 in0.0 mm 0.00 in0.0 mm
07:10 AM 26.5°F-3.1°C 25.3°F-3.7°C 95% Calm Calm -- 30.63 in1037.3 mb 0.00 in0.0 mm 0.00 in0.0 mm 0.00 in0.0 mm
07:00 AM 26.4°F-3.1°C 25.2°F-3.8°C 95% Calm Calm -- 30.63 in1037.3 mb 0.00 in0.0 mm 0.00 in0.0 mm 0.00 in0.0 mm
06:50 AM 26.5°F-3.1°C 25.5°F-3.6°C 96% Calm Calm -- 30.63 in1037.3 mb 0.00 in0.0 mm 0.00 in0.0 mm 0.00 in0.0 mm
06:40 AM 26.4°F-3.1°C 25.4°F-3.7°C 96% Calm Calm -- 30.64 in1037.6 mb 0.00 in0.0 mm 0.00 in0.0 mm 0.00 in0.0 mm
06:30 AM 26.3°F-3.2°C 25.3°F-3.7°C 96% Calm Calm -- 30.64 in1037.6 mb 0.00 in0.0 mm 0.00 in0.0 mm 0.00 in0.0 mm
06:20 AM 25.9°F-3.4°C 24.9°F-3.9°C 96% Calm Calm -- 30.64 in1037.6 mb 0.00 in0.0 mm 0.00 in0.0 mm 0.00 in0.0 mm
06:10 AM 25.6°F-3.6°C 24.9°F-3.9°C 97% Calm Calm -- 30.64 in1037.6 mb 0.00 in0.0 mm 0.00 in0.0 mm 0.00 in0.0 mm
06:00 AM 25.1°F-3.8°C 24.1°F-4.4°C 96% Calm Calm -- 30.65 in1037.9 mb 0.00 in0.0 mm 0.00 in0.0 mm 0.00 in0.0 mm
05:50 AM 25.3°F-3.7°C 24.6°F-4.1°C 97% Calm Calm -- 30.65 in1037.9 mb 0.00 in0.0 mm 0.00 in0.0 mm 0.00 in0.0 mm
05:40 AM 24.8°F-4.0°C 23.8°F-4.6°C 96% Calm Calm -- 30.66 in1038.3 mb 0.00 in0.0 mm 0.00 in0.0 mm 0.00 in0.0 mm
05:30 AM 24.5°F-4.2°C 23.5°F-4.7°C 96% Calm Calm -- 30.66 in1038.3 mb 0.00 in0.0 mm 0.00 in0.0 mm 0.00 in0.0 mm
05:20 AM 24.6°F-4.1°C 23.4°F-4.8°C 95% Calm Calm -- 30.66 in1038.3 mb 0.00 in0.0 mm 0.00 in0.0 mm 0.00 in0.0 mm
05:10 AM 25.1°F-3.8°C 23.9°F-4.5°C 95% Calm Calm -- 30.66 in1038.3 mb 0.00 in0.0 mm 0.00 in0.0 mm 0.00 in0.0 mm
05:00 AM 25.6°F-3.6°C 24.4°F-4.2°C 95% Calm Calm -- 30.66 in1038.3 mb 0.00 in0.0 mm 0.00 in0.0 mm 0.00 in0.0 mm
04:50 AM 25.7°F-3.5°C 24.5°F-4.2°C 95% Calm Calm -- 30.66 in1038.3 mb 0.00 in0.0 mm 0.00 in0.0 mm 0.00 in0.0 mm
04:40 AM 25.8°F-3.4°C 24.6°F-4.1°C 95% Calm Calm -- 30.66 in1038.3 mb 0.00 in0.0 mm 0.00 in0.0 mm 0.00 in0.0 mm
04:30 AM 26.1°F-3.3°C 24.6°F-4.1°C 94% Calm Calm -- 30.66 in1038.3 mb 0.00 in0.0 mm 0.00 in0.0 mm 0.00 in0.0 mm
04:20 AM 26.5°F-3.1°C 25.3°F-3.7°C 95% Calm Calm -- 30.66 in1038.3 mb 0.00 in0.0 mm 0.00 in0.0 mm 0.00 in0.0 mm
04:10 AM 26.4°F-3.1°C 24.9°F-3.9°C 94% Calm Calm -- 30.66 in1038.3 mb 0.00 in0.0 mm 0.00 in0.0 mm 0.00 in0.0 mm
04:00 AM 26.9°F-2.8°C 25.4°F-3.7°C 94% Calm Calm -- 30.66 in1038.3 mb 0.00 in0.0 mm 0.00 in0.0 mm 0.00 in0.0 mm
03:50 AM 27.1°F-2.7°C 25.6°F-3.6°C 94% Calm Calm -- 30.66 in1038.3 mb 0.00 in0.0 mm 0.00 in0.0 mm 0.00 in0.0 mm
03:40 AM 27.4°F-2.6°C 25.9°F-3.4°C 94% Calm Calm -- 30.66 in1038.3 mb 0.00 in0.0 mm 0.00 in0.0 mm 0.00 in0.0 mm
03:30 AM 27.3°F-2.6°C 26.1°F-3.3°C 95% Calm Calm -- 30.66 in1038.3 mb 0.00 in0.0 mm 0.00 in0.0 mm 0.00 in0.0 mm
03:20 AM 27.3°F-2.6°C 26.1°F-3.3°C 95% Calm Calm -- 30.66 in1038.3 mb 0.00 in0.0 mm 0.00 in0.0 mm 0.00 in0.0 mm
03:10 AM 27.4°F-2.6°C 26.2°F-3.2°C 95% Calm Calm -- 30.67 in1038.6 mb 0.00 in0.0 mm 0.00 in0.0 mm 0.00 in0.0 mm
03:00 AM 27.5°F-2.5°C 26.3°F-3.2°C 95% Calm Calm -- 30.67 in1038.6 mb 0.00 in0.0 mm 0.00 in0.0 mm 0.00 in0.0 mm
02:50 AM 27.6°F-2.4°C 26.4°F-3.1°C 95% Calm Calm -- 30.67 in1038.6 mb 0.00 in0.0 mm 0.00 in0.0 mm 0.00 in0.0 mm
02:40 AM 27.5°F-2.5°C 26.3°F-3.2°C 95% Calm Calm -- 30.68 in1038.9 mb 0.00 in0.0 mm 0.00 in0.0 mm 0.00 in0.0 mm
02:30 AM 27.5°F-2.5°C 26.3°F-3.2°C 95% Calm Calm -- 30.68 in1038.9 mb 0.00 in0.0 mm 0.00 in0.0 mm 0.00 in0.0 mm
02:20 AM 27.4°F-2.6°C 26.2°F-3.2°C 95% Calm Calm -- 30.68 in1038.9 mb 0.00 in0.0 mm 0.00 in0.0 mm 0.00 in0.0 mm
02:10 AM 27.3°F-2.6°C 26.1°F-3.3°C 95% Calm Calm -- 30.69 in1039.3 mb 0.00 in0.0 mm 0.00 in0.0 mm 0.00 in0.0 mm
02:00 AM 27.1°F-2.7°C 25.9°F-3.4°C 95% Calm Calm -- 30.68 in1038.9 mb 0.00 in0.0 mm 0.00 in0.0 mm 0.00 in0.0 mm
01:50 AM 27.0°F-2.8°C 26.0°F-3.3°C 96% Calm Calm -- 30.69 in1039.3 mb 0.00 in0.0 mm 0.00 in0.0 mm 0.00 in0.0 mm
01:40 AM 26.6°F-3.0°C 25.4°F-3.7°C 95% Calm Calm -- 30.69 in1039.3 mb 0.00 in0.0 mm 0.00 in0.0 mm 0.00 in0.0 mm
01:30 AM 26.6°F-3.0°C 25.1°F-3.8°C 94% Calm Calm -- 30.69 in1039.3 mb 0.00 in0.0 mm 0.00 in0.0 mm 0.00 in0.0 mm
01:20 AM 27.2°F-2.7°C 26.0°F-3.3°C 95% Calm Calm -- 30.69 in1039.3 mb 0.00 in0.0 mm 0.00 in0.0 mm 0.00 in0.0 mm
01:10 AM 26.8°F-2.9°C 25.3°F-3.7°C 94% Calm Calm -- 30.69 in1039.3 mb 0.00 in0.0 mm 0.00 in0.0 mm 0.00 in0.0 mm
01:00 AM 27.2°F-2.7°C 26.0°F-3.3°C 95% Calm Calm -- 30.69 in1039.3 mb 0.00 in0.0 mm 0.00 in0.0 mm 0.00 in0.0 mm
12:50 AM 27.3°F-2.6°C 26.1°F-3.3°C 95% Calm Calm -- 30.69 in1039.3 mb 0.00 in0.0 mm 0.00 in0.0 mm 0.00 in0.0 mm
12:40 AM 27.4°F-2.6°C 25.9°F-3.4°C 94% Calm Calm -- 30.69 in1039.3 mb 0.00 in0.0 mm 0.00 in0.0 mm 0.00 in0.0 mm
12:30 AM 27.8°F-2.3°C 26.3°F-3.2°C 94% Calm Calm -- 30.69 in1039.3 mb 0.00 in0.0 mm 0.00 in0.0 mm 0.00 in0.0 mm
12:20 AM 28.0°F-2.2°C 26.5°F-3.1°C 94% Calm Calm -- 30.70 in1039.6 mb 0.00 in0.0 mm 0.00 in0.0 mm 0.00 in0.0 mm
12:10 AM 27.8°F-2.3°C 26.6°F-3.0°C 95% Calm Calm -- 30.70 in1039.6 mb 0.00 in0.0 mm 0.00 in0.0 mm 0.00 in0.0 mm
12:00 AM 27.5°F-2.5°C 26.0°F-3.3°C 94% Calm Calm -- 30.70 in1039.6 mb 0.00 in0.0 mm 0.00 in0.0 mm 0.00 in0.0 mm